T7HHH SBRJ-SBSP
Flight info
| Callsign | T7HHH |
|---|---|
| Flight time | 0h 36m |
| Altitude | 34000 |
| Route | NAXOP UZ45 IBDAL |
| Aircraft | A20N/M-SDE2E3FGHIRWXY/LB1 |
Departure
| Time | 2026-05-07 04:14 |
|---|---|
| Airport | Santos Dumont Airport (SBRJ) |
Arrival
| Time | 2026-05-07 04:51 |
|---|---|
| Airport | Congonhas–Deputado Freitas Nobre Airport (SBSP) |
| Time | Latitude | Longitude | Altitude | Speed | Heading |
|---|---|---|---|---|---|
| 2026-05-07 03:59 | -22.90776 | -43.16623 | 22 ft | 0 kts | 266° |
| 2026-05-07 04:06 | -22.90776 | -43.16614 | 22 ft | 2 kts | 266° |
| 2026-05-07 04:07 | -22.90774 | -43.16598 | 22 ft | 2 kts | 266° |
| 2026-05-07 04:07 | -22.90775 | -43.16581 | 22 ft | 2 kts | 292° |
| 2026-05-07 04:07 | -22.90783 | -43.16568 | 22 ft | 2 kts | 320° |
| 2026-05-07 04:07 | -22.90797 | -43.16560 | 22 ft | 2 kts | 348° |
| 2026-05-07 04:08 | -22.90812 | -43.16559 | 22 ft | 2 kts | 4° |
| 2026-05-07 04:08 | -22.90827 | -43.16560 | 22 ft | 2 kts | 359° |
| 2026-05-07 04:08 | -22.90832 | -43.16560 | 22 ft | 0 kts | 360° |
| 2026-05-07 04:10 | -22.90807 | -43.16559 | 22 ft | 8 kts | 0° |
| 2026-05-07 04:11 | -22.90724 | -43.16559 | 22 ft | 13 kts | 0° |
| 2026-05-07 04:11 | -22.90629 | -43.16559 | 22 ft | 14 kts | 357° |
| 2026-05-07 04:11 | -22.90535 | -43.16565 | 22 ft | 9 kts | 356° |
| 2026-05-07 04:11 | -22.90491 | -43.16515 | 21 ft | 8 kts | 84° |
| 2026-05-07 04:12 | -22.90490 | -43.16505 | 21 ft | 0 kts | 85° |
| 2026-05-07 04:12 | -22.90489 | -43.16495 | 21 ft | 2 kts | 85° |
| 2026-05-07 04:12 | -22.90487 | -43.16466 | 20 ft | 5 kts | 85° |
| 2026-05-07 04:13 | -22.90482 | -43.16401 | 19 ft | 9 kts | 83° |
| 2026-05-07 04:13 | -22.90477 | -43.16331 | 19 ft | 8 kts | 131° |
| 2026-05-07 04:13 | -22.90498 | -43.16324 | 20 ft | 12 kts | 176° |
| 2026-05-07 04:13 | -22.90937 | -43.16297 | 22 ft | 109 kts | 176° |
| 2026-05-07 04:14 | -22.91921 | -43.16230 | 312 ft | 155 kts | 175° |
| 2026-05-07 04:14 | -22.92930 | -43.15880 | 1137 ft | 158 kts | 140° |
| 2026-05-07 04:14 | -22.93697 | -43.15064 | 2030 ft | 161 kts | 130° |
| 2026-05-07 04:14 | -22.94489 | -43.14152 | 2727 ft | 175 kts | 130° |
| 2026-05-07 04:15 | -22.95390 | -43.13187 | 3395 ft | 193 kts | 134° |
| 2026-05-07 04:15 | -22.96436 | -43.12171 | 4104 ft | 213 kts | 136° |
| 2026-05-07 04:15 | -22.97599 | -43.11069 | 4879 ft | 232 kts | 137° |
| 2026-05-07 04:15 | -22.99044 | -43.10152 | 5636 ft | 256 kts | 163° |
| 2026-05-07 04:16 | -23.00867 | -43.10143 | 6392 ft | 279 kts | 195° |
| 2026-05-07 04:16 | -23.02599 | -43.11213 | 7156 ft | 299 kts | 220° |
| 2026-05-07 04:16 | -23.04218 | -43.12732 | 7921 ft | 318 kts | 221° |
| 2026-05-07 04:16 | -23.05957 | -43.14353 | 8645 ft | 338 kts | 220° |
| 2026-05-07 04:17 | -23.07824 | -43.16041 | 9311 ft | 358 kts | 219° |
| 2026-05-07 04:17 | -23.09805 | -43.17774 | 9900 ft | 377 kts | 218° |
| 2026-05-07 04:17 | -23.11911 | -43.19601 | 10480 ft | 395 kts | 218° |
| 2026-05-07 04:17 | -23.14075 | -43.21480 | 11310 ft | 403 kts | 218° |
| 2026-05-07 04:18 | -23.16287 | -43.23403 | 12178 ft | 407 kts | 218° |
| 2026-05-07 04:18 | -23.18495 | -43.25327 | 13014 ft | 411 kts | 219° |
| 2026-05-07 04:18 | -23.20514 | -43.27547 | 13764 ft | 416 kts | 235° |
| 2026-05-07 04:18 | -23.21788 | -43.30378 | 14582 ft | 419 kts | 249° |
| 2026-05-07 04:19 | -23.22750 | -43.33368 | 15347 ft | 423 kts | 251° |
| 2026-05-07 04:19 | -23.23662 | -43.36406 | 16066 ft | 428 kts | 251° |
| 2026-05-07 04:19 | -23.24584 | -43.39473 | 16798 ft | 431 kts | 251° |
| 2026-05-07 04:19 | -23.25520 | -43.42580 | 17507 ft | 435 kts | 251° |
| 2026-05-07 04:20 | -23.26454 | -43.45704 | 18322 ft | 435 kts | 251° |
| 2026-05-07 04:20 | -23.27362 | -43.48803 | 19423 ft | 428 kts | 251° |
| 2026-05-07 04:20 | -23.28236 | -43.51866 | 20207 ft | 431 kts | 251° |
| 2026-05-07 04:21 | -23.30046 | -43.58284 | 21036 ft | 451 kts | 252° |
| 2026-05-07 04:21 | -23.30963 | -43.61530 | 21682 ft | 455 kts | 251° |
| 2026-05-07 04:21 | -23.31902 | -43.64863 | 22343 ft | 457 kts | 251° |
| 2026-05-07 04:21 | -23.32836 | -43.68169 | 22972 ft | 460 kts | 252° |
| 2026-05-07 04:22 | -23.33772 | -43.71491 | 23568 ft | 463 kts | 251° |
| 2026-05-07 04:22 | -23.34717 | -43.74849 | 24143 ft | 465 kts | 251° |
| 2026-05-07 04:22 | -23.35659 | -43.78192 | 24689 ft | 467 kts | 251° |
| 2026-05-07 04:22 | -23.36610 | -43.81569 | 25207 ft | 469 kts | 251° |
| 2026-05-07 04:23 | -23.37570 | -43.84980 | 25880 ft | 466 kts | 250° |
| 2026-05-07 04:23 | -23.38506 | -43.88316 | 26637 ft | 461 kts | 250° |
| 2026-05-07 04:23 | -23.39434 | -43.91623 | 27400 ft | 456 kts | 250° |
| 2026-05-07 04:23 | -23.40355 | -43.94907 | 28107 ft | 452 kts | 249° |
| 2026-05-07 04:24 | -23.41266 | -43.98149 | 28795 ft | 448 kts | 249° |
| 2026-05-07 04:24 | -23.42164 | -44.01350 | 29467 ft | 445 kts | 249° |
| 2026-05-07 04:24 | -23.43064 | -44.04561 | 30150 ft | 441 kts | 249° |
| 2026-05-07 04:24 | -23.43957 | -44.07759 | 30831 ft | 437 kts | 248° |
| 2026-05-07 04:25 | -23.44824 | -44.10860 | 31501 ft | 433 kts | 248° |
| 2026-05-07 04:25 | -23.45694 | -44.13983 | 32203 ft | 428 kts | 248° |
| 2026-05-07 04:25 | -23.46552 | -44.17056 | 32828 ft | 425 kts | 248° |
| 2026-05-07 04:25 | -23.47411 | -44.20125 | 33244 ft | 426 kts | 247° |
| 2026-05-07 04:26 | -23.48282 | -44.23228 | 33645 ft | 427 kts | 247° |
| 2026-05-07 04:26 | -23.49143 | -44.26298 | 34011 ft | 428 kts | 247° |
| 2026-05-07 04:26 | -23.50883 | -44.32518 | 34059 ft | 428 kts | 247° |
| 2026-05-07 04:27 | -23.52609 | -44.38708 | 34062 ft | 429 kts | 247° |
| 2026-05-07 04:27 | -23.54331 | -44.44902 | 34065 ft | 427 kts | 247° |
| 2026-05-07 04:28 | -23.56053 | -44.51108 | 34062 ft | 428 kts | 247° |
| 2026-05-07 04:28 | -23.57773 | -44.57314 | 34070 ft | 427 kts | 247° |
| 2026-05-07 04:29 | -23.59485 | -44.63507 | 34068 ft | 428 kts | 247° |
| 2026-05-07 04:29 | -23.61195 | -44.69701 | 34070 ft | 427 kts | 248° |
| 2026-05-07 04:30 | -23.62905 | -44.75901 | 34072 ft | 427 kts | 248° |
| 2026-05-07 04:30 | -23.64613 | -44.82110 | 33945 ft | 428 kts | 248° |
| 2026-05-07 04:31 | -23.65461 | -44.85197 | 33657 ft | 426 kts | 248° |
| 2026-05-07 04:31 | -23.66310 | -44.88292 | 33372 ft | 424 kts | 248° |
| 2026-05-07 04:31 | -23.67151 | -44.91359 | 33069 ft | 422 kts | 248° |
| 2026-05-07 04:31 | -23.67989 | -44.94417 | 32471 ft | 422 kts | 248° |
| 2026-05-07 04:32 | -23.68822 | -44.97447 | 31662 ft | 423 kts | 248° |
| 2026-05-07 04:32 | -23.69668 | -45.00529 | 30733 ft | 425 kts | 249° |
| 2026-05-07 04:32 | -23.70508 | -45.03595 | 29760 ft | 428 kts | 249° |
| 2026-05-07 04:32 | -23.71365 | -45.06729 | 28712 ft | 432 kts | 249° |
| 2026-05-07 04:33 | -23.72213 | -45.09837 | 27640 ft | 436 kts | 250° |
| 2026-05-07 04:33 | -23.73081 | -45.13026 | 26476 ft | 442 kts | 250° |
| 2026-05-07 04:33 | -23.73954 | -45.16232 | 25236 ft | 449 kts | 250° |
| 2026-05-07 04:33 | -23.74846 | -45.19511 | 23973 ft | 455 kts | 251° |
| 2026-05-07 04:34 | -23.75724 | -45.22800 | 23166 ft | 451 kts | 252° |
| 2026-05-07 04:34 | -23.76487 | -45.26088 | 22396 ft | 447 kts | 254° |
| 2026-05-07 04:34 | -23.77205 | -45.29337 | 21643 ft | 442 kts | 254° |
| 2026-05-07 04:34 | -23.77922 | -45.32612 | 20888 ft | 438 kts | 255° |
| 2026-05-07 04:35 | -23.78618 | -45.35784 | 20157 ft | 434 kts | 255° |
| 2026-05-07 04:35 | -23.79243 | -45.38997 | 19412 ft | 430 kts | 258° |
| 2026-05-07 04:35 | -23.79692 | -45.42181 | 18732 ft | 430 kts | 261° |
| 2026-05-07 04:35 | -23.79969 | -45.45452 | 18592 ft | 436 kts | 264° |
| 2026-05-07 04:36 | -23.80152 | -45.48788 | 18494 ft | 437 kts | 265° |
| 2026-05-07 04:36 | -23.80321 | -45.52102 | 18339 ft | 437 kts | 265° |
| 2026-05-07 04:36 | -23.80486 | -45.55396 | 18109 ft | 436 kts | 265° |
| 2026-05-07 04:36 | -23.80652 | -45.58705 | 17865 ft | 435 kts | 265° |
| 2026-05-07 04:37 | -23.80817 | -45.61982 | 17623 ft | 434 kts | 265° |
| 2026-05-07 04:37 | -23.80983 | -45.65254 | 17384 ft | 433 kts | 266° |
| 2026-05-07 04:37 | -23.81150 | -45.68559 | 17137 ft | 432 kts | 266° |
| 2026-05-07 04:37 | -23.81315 | -45.71847 | 16898 ft | 431 kts | 266° |
| 2026-05-07 04:38 | -23.81480 | -45.75103 | 16658 ft | 430 kts | 266° |
| 2026-05-07 04:38 | -23.81643 | -45.78348 | 16418 ft | 429 kts | 266° |
| 2026-05-07 04:38 | -23.81805 | -45.81601 | 16150 ft | 428 kts | 266° |
| 2026-05-07 04:38 | -23.81967 | -45.84848 | 15664 ft | 425 kts | 266° |
| 2026-05-07 04:39 | -23.82125 | -45.88016 | 15033 ft | 421 kts | 266° |
| 2026-05-07 04:39 | -23.82281 | -45.91167 | 14322 ft | 417 kts | 266° |
| 2026-05-07 04:39 | -23.82435 | -45.94298 | 13564 ft | 413 kts | 267° |
| 2026-05-07 04:39 | -23.82587 | -45.97393 | 12975 ft | 404 kts | 267° |
| 2026-05-07 04:40 | -23.82735 | -46.00432 | 12457 ft | 394 kts | 267° |
| 2026-05-07 04:40 | -23.82878 | -46.03392 | 11956 ft | 384 kts | 267° |
| 2026-05-07 04:40 | -23.83016 | -46.06265 | 11584 ft | 371 kts | 268° |
| 2026-05-07 04:40 | -23.83149 | -46.09039 | 11190 ft | 361 kts | 268° |
| 2026-05-07 04:41 | -23.83278 | -46.11722 | 10938 ft | 347 kts | 268° |
| 2026-05-07 04:41 | -23.83400 | -46.14286 | 10702 ft | 334 kts | 268° |
| 2026-05-07 04:41 | -23.83519 | -46.16785 | 10481 ft | 321 kts | 268° |
| 2026-05-07 04:41 | -23.83631 | -46.19170 | 10295 ft | 309 kts | 268° |
| 2026-05-07 04:42 | -23.83627 | -46.21488 | 9961 ft | 303 kts | 278° |
| 2026-05-07 04:42 | -23.83267 | -46.23735 | 9473 ft | 302 kts | 284° |
| 2026-05-07 04:42 | -23.82816 | -46.25971 | 8998 ft | 302 kts | 284° |
| 2026-05-07 04:42 | -23.82376 | -46.28198 | 8573 ft | 299 kts | 283° |
| 2026-05-07 04:43 | -23.81961 | -46.30415 | 8168 ft | 296 kts | 283° |
| 2026-05-07 04:43 | -23.81569 | -46.32597 | 7773 ft | 293 kts | 283° |
| 2026-05-07 04:43 | -23.81185 | -46.34791 | 7380 ft | 290 kts | 282° |
| 2026-05-07 04:43 | -23.80815 | -46.36939 | 7001 ft | 287 kts | 282° |
| 2026-05-07 04:44 | -23.80449 | -46.39078 | 6620 ft | 284 kts | 282° |
| 2026-05-07 04:44 | -23.80094 | -46.41165 | 6257 ft | 282 kts | 282° |
| 2026-05-07 04:44 | -23.79734 | -46.43283 | 5886 ft | 279 kts | 282° |
| 2026-05-07 04:44 | -23.79383 | -46.45338 | 5522 ft | 277 kts | 282° |
| 2026-05-07 04:45 | -23.79028 | -46.47412 | 5172 ft | 274 kts | 282° |
| 2026-05-07 04:45 | -23.78691 | -46.49392 | 5091 ft | 260 kts | 282° |
| 2026-05-07 04:45 | -23.78372 | -46.51271 | 5042 ft | 245 kts | 282° |
| 2026-05-07 04:45 | -23.78068 | -46.53054 | 4995 ft | 232 kts | 282° |
| 2026-05-07 04:46 | -23.77745 | -46.54724 | 4941 ft | 218 kts | 292° |
| 2026-05-07 04:46 | -23.76882 | -46.55961 | 4914 ft | 197 kts | 328° |
| 2026-05-07 04:46 | -23.75756 | -46.56691 | 5009 ft | 174 kts | 333° |
| 2026-05-07 04:46 | -23.74776 | -46.57306 | 4981 ft | 151 kts | 332° |
| 2026-05-07 04:47 | -23.73908 | -46.57877 | 4937 ft | 143 kts | 332° |
| 2026-05-07 04:47 | -23.73082 | -46.58436 | 4798 ft | 136 kts | 331° |
| 2026-05-07 04:47 | -23.72301 | -46.58976 | 4601 ft | 131 kts | 331° |
| 2026-05-07 04:47 | -23.71527 | -46.59512 | 4422 ft | 130 kts | 330° |
| 2026-05-07 04:48 | -23.70756 | -46.60048 | 4245 ft | 131 kts | 330° |
| 2026-05-07 04:48 | -23.69982 | -46.60585 | 4077 ft | 131 kts | 331° |
| 2026-05-07 04:48 | -23.69218 | -46.61115 | 3919 ft | 130 kts | 330° |
| 2026-05-07 04:48 | -23.68454 | -46.61645 | 3753 ft | 130 kts | 330° |
| 2026-05-07 04:49 | -23.67681 | -46.62180 | 3588 ft | 130 kts | 330° |
| 2026-05-07 04:49 | -23.66912 | -46.62713 | 3429 ft | 129 kts | 330° |
| 2026-05-07 04:49 | -23.66152 | -46.63240 | 3258 ft | 129 kts | 330° |
| 2026-05-07 04:49 | -23.65398 | -46.63761 | 3091 ft | 129 kts | 330° |
| 2026-05-07 04:50 | -23.64632 | -46.64290 | 2918 ft | 128 kts | 330° |
| 2026-05-07 04:50 | -23.63875 | -46.64815 | 2756 ft | 128 kts | 329° |
| 2026-05-07 04:50 | -23.63133 | -46.65328 | 2625 ft | 120 kts | 329° |
| 2026-05-07 04:50 | -23.62631 | -46.65671 | 2607 ft | 64 kts | 330° |
| 2026-05-07 04:51 | -23.62275 | -46.65918 | 2594 ft | 39 kts | 326° |
| 2026-05-07 04:51 | -23.62205 | -46.66019 | 2590 ft | 16 kts | 244° |
| 2026-05-07 04:51 | -23.62297 | -46.66010 | 2592 ft | 14 kts | 151° |
| 2026-05-07 04:51 | -23.62375 | -46.65956 | 2595 ft | 12 kts | 147° |
| 2026-05-07 04:52 | -23.62446 | -46.65907 | 2597 ft | 11 kts | 147° |
| 2026-05-07 04:52 | -23.62513 | -46.65861 | 2599 ft | 10 kts | 147° |
| 2026-05-07 04:52 | -23.62579 | -46.65816 | 2601 ft | 12 kts | 147° |
| 2026-05-07 04:52 | -23.62648 | -46.65767 | 2604 ft | 11 kts | 148° |
| 2026-05-07 04:53 | -23.62713 | -46.65723 | 2606 ft | 10 kts | 148° |
| 2026-05-07 04:53 | -23.62776 | -46.65679 | 2608 ft | 10 kts | 147° |
| 2026-05-07 04:53 | -23.62839 | -46.65635 | 2610 ft | 10 kts | 147° |
| 2026-05-07 04:53 | -23.62903 | -46.65602 | 2613 ft | 9 kts | 185° |
| 2026-05-07 04:54 | -23.62953 | -46.65659 | 2611 ft | 10 kts | 237° |
| 2026-05-07 04:54 | -23.62983 | -46.65683 | 2610 ft | 0 kts | 156° |
| 2026-05-07 04:54 | -23.62989 | -46.65681 | 2611 ft | 2 kts | 154° |
| 2026-05-07 04:54 | -23.63001 | -46.65673 | 2611 ft | 1 kts | 149° |
| 2026-05-07 04:55 | -23.63003 | -46.65671 | 2611 ft | 0 kts | 149° |